Time;durP1;ratioP1;P1;durP2;ratioP2;P2;SDS_P1;SDS_P2;PMS_P1;PMS_P2;Temp;Humidity;BMP_temperature;BMP_pressure;BME280_temperature;BME280_humidity;BME280_pressure;Samples;Min_cycle;Max_cycle;Signal;HPM_P1;HPM_P2
2023/03/21 00:01:55;;;;;;;19.97;13.87;;;7.80;99.90;;;;;;5018375;28;20193;-86
2023/03/21 00:04:26;;;;;;;21.77;14.80;;;7.70;99.90;;;;;;5018422;28;20573;-87
2023/03/21 00:06:52;;;;;;;20.13;14.47;;;7.70;99.90;;;;;;5035854;28;20183;-87
2023/03/21 00:09:19;;;;;;;25.43;14.67;;;7.70;99.90;;;;;;5018295;28;20190;-86
2023/03/21 00:11:47;;;;;;;25.30;15.10;;;7.70;99.90;;;;;;5018273;28;20186;-87
2023/03/21 00:14:17;;;;;;;20.53;15.10;;;7.70;99.90;;;;;;5018233;28;20179;-86
2023/03/21 00:16:44;;;;;;;21.70;15.77;;;7.70;99.90;;;;;;5018158;28;20178;-86
2023/03/21 00:19:10;;;;;;;21.77;14.97;;;7.70;99.90;;;;;;5016810;28;20520;-85
2023/03/21 00:21:37;;;;;;;21.67;15.87;;;7.70;99.90;;;;;;5017539;28;20241;-87
2023/03/21 00:24:04;;;;;;;24.17;15.93;;;7.70;99.90;;;;;;5034873;28;20178;-86
2023/03/21 00:26:30;;;;;;;24.00;15.97;;;7.70;99.90;;;;;;5018070;28;20185;-87
2023/03/21 00:28:56;;;;;;;22.90;14.87;;;7.70;99.90;;;;;;5017724;28;20229;-86
2023/03/21 00:31:22;;;;;;;24.97;15.77;;;7.70;99.90;;;;;;5034230;28;20186;-87
2023/03/21 00:33:48;;;;;;;21.13;14.97;;;7.70;99.90;;;;;;5034456;28;20171;-83
2023/03/21 00:36:14;;;;;;;28.43;16.60;;;7.70;99.90;;;;;;5017746;28;20186;-87
2023/03/21 00:38:40;;;;;;;25.80;16.37;;;7.70;99.90;;;;;;5017676;28;20222;-86
2023/03/21 00:41:09;;;;;;;24.43;16.03;;;7.70;99.90;;;;;;5034125;28;20178;-87
2023/03/21 00:43:36;;;;;;;22.63;16.93;;;7.70;99.90;;;;;;5017697;28;20252;-86
2023/03/21 00:46:02;;;;;;;21.77;16.93;;;7.70;99.90;;;;;;5034177;28;20174;-86
2023/03/21 00:48:29;;;;;;;23.30;16.83;;;7.60;99.90;;;;;;5034099;28;20705;-87
2023/03/21 00:50:58;;;;;;;26.30;17.23;;;7.70;99.90;;;;;;5017191;28;20179;-86
2023/03/21 00:53:26;;;;;;;27.53;17.23;;;7.60;99.90;;;;;;5035177;28;20174;-86
2023/03/21 00:55:52;;;;;;;24.03;17.47;;;7.60;99.90;;;;;;5017427;28;20189;-86
2023/03/21 00:58:17;;;;;;;24.50;17.37;;;7.60;99.90;;;;;;5033993;28;20557;-87
2023/03/21 01:00:45;;;;;;;24.07;17.27;;;7.60;99.90;;;;;;5033505;28;20178;-87
2023/03/21 01:03:14;;;;;;;27.60;17.50;;;7.60;99.90;;;;;;5033574;28;20224;-87
2023/03/21 01:06:04;;;;;;;22.30;16.23;;;7.60;99.90;;;;;;5016798;28;20171;-87
2023/03/21 01:08:33;;;;;;;24.37;16.47;;;7.60;99.90;;;;;;5017124;28;20623;-88
2023/03/21 01:11:05;;;;;;;25.37;17.70;;;7.60;99.90;;;;;;5017602;28;20183;-87
2023/03/21 01:13:33;;;;;;;25.23;18.40;;;7.60;99.90;;;;;;5034959;28;20822;-87
2023/03/21 01:15:59;;;;;;;25.93;18.27;;;7.60;99.90;;;;;;5033631;28;20175;-87
2023/03/21 01:18:28;;;;;;;26.90;18.17;;;7.60;99.90;;;;;;5034834;28;20321;-87
2023/03/21 01:20:57;;;;;;;25.73;18.13;;;7.60;99.90;;;;;;5016617;28;20376;-86
2023/03/21 01:23:26;;;;;;;26.37;18.73;;;7.60;99.90;;;;;;5017090;28;20182;-86
2023/03/21 01:25:54;;;;;;;26.60;18.33;;;7.60;99.90;;;;;;5017144;28;20195;-86
2023/03/21 01:28:20;;;;;;;28.87;18.77;;;7.60;99.90;;;;;;5017032;28;20186;-87
2023/03/21 01:30:47;;;;;;;25.23;17.67;;;7.60;99.90;;;;;;5032941;28;20225;-87
2023/03/21 01:33:14;;;;;;;22.77;18.10;;;7.60;99.90;;;;;;5017137;28;20178;-88
2023/03/21 01:35:40;;;;;;;24.27;18.17;;;7.60;99.90;;;;;;5016742;28;20555;-86
2023/03/21 01:38:05;;;;;;;24.43;18.30;;;7.60;99.90;;;;;;5016963;28;20211;-87
2023/03/21 01:40:31;;;;;;;24.10;18.13;;;7.60;99.90;;;;;;5016665;28;20210;-87
2023/03/21 01:42:58;;;;;;;25.80;17.43;;;7.60;99.90;;;;;;5016655;28;20616;-86
2023/03/21 01:46:01;;;;;;;22.63;16.77;;;7.60;99.90;;;;;;5017028;28;20174;-87
2023/03/21 01:48:28;;;;;;;24.03;16.97;;;7.60;99.90;;;;;;5016769;28;20178;-88
2023/03/21 01:50:54;;;;;;;25.83;17.57;;;7.60;99.90;;;;;;5016260;28;20263;-86
2023/03/21 01:53:28;;;;;;;26.60;17.93;;;7.60;99.90;;;;;;5016293;28;20185;-86
2023/03/21 01:55:57;;;;;;;28.63;18.57;;;7.60;99.90;;;;;;5015791;28;20161;-87
2023/03/21 01:58:23;;;;;;;29.10;18.40;;;7.60;99.90;;;;;;5016199;28;20207;-87
2023/03/21 02:00:50;;;;;;;24.97;17.33;;;7.60;99.90;;;;;;5010809;28;20171;-87
2023/03/21 02:03:17;;;;;;;25.23;18.27;;;7.60;99.90;;;;;;5016301;28;20189;-87
2023/03/21 02:06:01;;;;;;;26.33;17.80;;;7.60;99.90;;;;;;5032010;28;20178;-86
2023/03/21 02:08:31;;;;;;;25.67;18.00;;;7.60;99.90;;;;;;5015591;28;20170;-86
2023/03/21 02:10:58;;;;;;;26.50;17.87;;;7.70;99.90;;;;;;5015619;28;20190;-86
2023/03/21 02:13:24;;;;;;;24.60;17.20;;;7.60;99.90;;;;;;5015875;28;20225;-87
2023/03/21 02:16:06;;;;;;;26.97;17.47;;;7.60;99.90;;;;;;5015324;28;20528;-86
2023/03/21 02:18:57;;;;;;;27.13;18.30;;;7.60;99.90;;;;;;5015552;28;20210;-86
2023/03/21 02:21:50;;;;;;;24.67;16.63;;;7.60;99.90;;;;;;5015369;28;20332;-86
2023/03/21 02:24:37;;;;;;;23.90;17.03;;;7.60;99.90;;;;;;5016233;28;20522;-87
2023/03/21 02:27:14;;;;;;;22.60;17.67;;;7.60;99.90;;;;;;4985640;28;20198;-87
2023/03/21 02:30:17;;;;;;;25.07;17.23;;;7.60;99.90;;;;;;5032910;28;20172;-84
2023/03/21 02:33:04;;;;;;;28.37;18.07;;;7.60;99.90;;;;;;5016158;28;20174;-87
2023/03/21 02:35:48;;;;;;;27.97;18.27;;;7.60;99.90;;;;;;5016018;28;20621;-88
2023/03/21 02:38:35;;;;;;;27.00;17.53;;;7.60;99.90;;;;;;5015878;28;20210;-86
2023/03/21 02:41:08;;;;;;;29.23;18.63;;;7.60;99.90;;;;;;5015107;28;20515;-87
2023/03/21 02:43:43;;;;;;;24.60;18.17;;;7.60;99.90;;;;;;5036200;28;20175;-87
2023/03/21 02:46:20;;;;;;;24.33;17.33;;;7.60;99.90;;;;;;5019811;28;20184;-86
2023/03/21 02:49:02;;;;;;;25.67;17.57;;;7.60;99.90;;;;;;5019761;28;20412;-87
2023/03/21 02:51:29;;;;;;;26.73;18.27;;;7.70;99.90;;;;;;5018911;28;20860;-86
2023/03/21 02:54:04;;;;;;;23.30;17.10;;;7.70;99.90;;;;;;5035319;28;20229;-86
2023/03/21 02:56:32;;;;;;;24.33;16.90;;;7.70;99.90;;;;;;5019508;28;20253;-86
2023/03/21 02:58:59;;;;;;;22.03;16.60;;;7.70;99.90;;;;;;5019192;28;20210;-86
2023/03/21 03:01:27;;;;;;;23.97;17.20;;;7.70;99.90;;;;;;5019327;28;20174;-85
2023/03/21 03:03:55;;;;;;;22.43;16.40;;;7.70;99.90;;;;;;5018927;28;20179;-86
2023/03/21 03:06:45;;;;;;;24.67;17.20;;;7.70;99.90;;;;;;5018271;28;20198;-86
2023/03/21 03:09:20;;;;;;;21.70;16.20;;;7.70;99.90;;;;;;5018847;28;20175;-85
2023/03/21 03:11:50;;;;;;;23.43;15.40;;;7.70;99.90;;;;;;5019308;28;20273;-86
2023/03/21 03:14:36;;;;;;;20.73;15.23;;;7.70;99.90;;;;;;5019499;28;20185;-86
2023/03/21 03:17:24;;;;;;;24.97;15.90;;;7.70;99.90;;;;;;5018194;28;20264;-85
2023/03/21 03:20:09;;;;;;;22.03;16.13;;;7.70;99.90;;;;;;5034530;28;20520;-87
2023/03/21 03:22:47;;;;;;;26.17;15.97;;;7.60;99.90;;;;;;5018732;28;20206;-86
2023/03/21 03:25:19;;;;;;;22.00;14.63;;;7.60;99.90;;;;;;5019163;28;20620;-86
2023/03/21 03:27:47;;;;;;;24.90;15.13;;;7.60;99.90;;;;;;5036832;28;20163;-86
2023/03/21 03:30:13;;;;;;;24.60;15.13;;;7.60;99.90;;;;;;5018083;28;20516;-86
2023/03/21 03:32:43;;;;;;;24.97;14.90;;;7.60;99.90;;;;;;5018165;28;20206;-86
2023/03/21 03:35:13;;;;;;;22.20;14.33;;;7.60;99.90;;;;;;5019105;28;20206;-86
2023/03/21 03:37:41;;;;;;;20.00;14.80;;;7.60;99.90;;;;;;5018523;28;20284;-87
2023/03/21 03:40:15;;;;;;;20.93;14.87;;;7.60;99.90;;;;;;5018613;28;20185;-87
2023/03/21 03:42:48;;;;;;;23.00;15.03;;;7.70;99.90;;;;;;5016860;28;20253;-85
2023/03/21 03:45:14;;;;;;;22.37;14.67;;;7.70;99.90;;;;;;5017442;28;20174;-87
2023/03/21 03:47:53;;;;;;;24.40;15.23;;;7.70;99.90;;;;;;5034607;28;20281;-87
2023/03/21 03:50:42;;;;;;;18.73;14.80;;;7.70;99.90;;;;;;5017874;28;20190;-87
2023/03/21 03:53:22;;;;;;;25.57;14.97;;;7.70;99.90;;;;;;5017679;28;20551;-85
2023/03/21 03:55:50;;;;;;;21.93;14.50;;;7.70;99.90;;;;;;5016853;28;20565;-85
2023/03/21 03:58:18;;;;;;;25.20;15.57;;;7.60;99.90;;;;;;5016962;28;20213;-84
2023/03/21 04:00:45;;;;;;;23.93;15.43;;;7.70;99.90;;;;;;5035589;28;20175;-85
2023/03/21 04:03:12;;;;;;;26.87;15.50;;;7.70;99.90;;;;;;5017637;28;20178;-84
2023/03/21 04:05:37;;;;;;;23.97;14.60;;;7.70;99.90;;;;;;5018268;28;20179;-87
2023/03/21 04:08:03;;;;;;;26.33;15.37;;;7.60;99.90;;;;;;5035470;28;20173;-86
2023/03/21 04:10:29;;;;;;;21.80;13.93;;;7.70;99.90;;;;;;5035172;28;20166;-87
2023/03/21 04:12:55;;;;;;;22.37;14.27;;;7.60;99.90;;;;;;5018317;28;20189;-86
2023/03/21 04:15:20;;;;;;;25.30;14.60;;;7.60;99.90;;;;;;5036094;28;20166;-87
2023/03/21 04:17:46;;;;;;;25.07;14.37;;;7.70;99.90;;;;;;5018191;28;20563;-86
2023/03/21 04:20:13;;;;;;;25.37;14.90;;;7.70;99.90;;;;;;5017338;28;20680;-87
2023/03/21 04:22:39;;;;;;;26.03;13.90;;;7.70;99.90;;;;;;5033611;28;20186;-87
2023/03/21 04:25:06;;;;;;;22.73;14.73;;;7.70;99.90;;;;;;5017761;28;20174;-87
2023/03/21 04:27:32;;;;;;;23.60;13.60;;;7.70;99.90;;;;;;5035375;28;20163;-87
2023/03/21 04:29:58;;;;;;;23.33;13.67;;;7.70;99.90;;;;;;5033969;28;20745;-87
2023/03/21 04:32:25;;;;;;;22.13;14.33;;;7.70;99.90;;;;;;5033336;28;20166;-87
2023/03/21 04:34:53;;;;;;;22.60;13.83;;;7.70;99.90;;;;;;5017084;28;20189;-87
2023/03/21 04:37:22;;;;;;;25.27;13.57;;;7.70;99.90;;;;;;5034795;28;20229;-86
2023/03/21 04:39:49;;;;;;;20.73;14.20;;;7.80;99.90;;;;;;5033983;28;20273;-87
2023/03/21 04:42:17;;;;;;;21.87;13.70;;;7.70;99.90;;;;;;5017453;28;20596;-87
2023/03/21 04:44:47;;;;;;;20.53;13.43;;;7.70;99.90;;;;;;5017370;28;20178;-85
2023/03/21 04:47:14;;;;;;;21.43;12.73;;;7.80;99.90;;;;;;5016884;28;20171;-86
2023/03/21 04:49:41;;;;;;;21.53;13.63;;;7.80;99.90;;;;;;5016953;28;20182;-86
2023/03/21 04:52:07;;;;;;;21.83;13.27;;;7.80;99.90;;;;;;5017349;28;20205;-86
2023/03/21 04:54:33;;;;;;;21.20;12.97;;;7.80;99.90;;;;;;5034035;28;20192;-87
2023/03/21 04:56:59;;;;;;;22.73;13.33;;;7.80;99.90;;;;;;5035060;28;20163;-87
2023/03/21 04:59:25;;;;;;;20.60;12.90;;;7.80;99.90;;;;;;5034176;28;20261;-87
2023/03/21 05:01:51;;;;;;;20.13;13.30;;;7.70;99.90;;;;;;5016978;28;20186;-85
2023/03/21 05:04:17;;;;;;;22.70;13.73;;;7.70;99.90;;;;;;5014097;28;20179;-85
2023/03/21 05:06:45;;;;;;;20.63;12.63;;;7.80;99.90;;;;;;5013364;28;20254;-86
2023/03/21 05:09:12;;;;;;;20.13;13.30;;;7.70;99.90;;;;;;4997414;28;20167;-87
2023/03/21 05:11:40;;;;;;;24.83;13.80;;;7.80;99.90;;;;;;4996668;28;20183;-87
2023/03/21 05:14:12;;;;;;;24.63;13.77;;;7.80;99.90;;;;;;4997082;28;20528;-86
2023/03/21 05:16:47;;;;;;;19.20;12.20;;;7.70;99.90;;;;;;4997736;28;20198;-86
2023/03/21 05:19:16;;;;;;;23.87;13.20;;;7.70;99.90;;;;;;4997358;28;20210;-86
2023/03/21 05:21:42;;;;;;;20.83;13.30;;;7.70;99.90;;;;;;4996893;28;20286;-86
2023/03/21 05:24:14;;;;;;;21.17;13.00;;;7.80;99.90;;;;;;5013081;28;20181;-86
2023/03/21 05:26:42;;;;;;;18.93;12.93;;;7.80;99.90;;;;;;4996455;28;20198;-86
2023/03/21 05:29:08;;;;;;;20.67;12.63;;;7.80;99.90;;;;;;4996745;28;20171;-88
2023/03/21 05:31:35;;;;;;;21.47;12.57;;;7.90;99.90;;;;;;4997014;28;20299;-86
2023/03/21 05:34:01;;;;;;;19.43;11.80;;;7.80;99.90;;;;;;5013092;28;20175;-86
2023/03/21 05:36:27;;;;;;;26.43;12.13;;;7.90;99.90;;;;;;4996040;28;20248;-86
2023/03/21 05:38:53;;;;;;;19.83;12.83;;;7.90;99.90;;;;;;5013648;28;20673;-87
2023/03/21 05:41:20;;;;;;;20.13;12.23;;;7.90;99.90;;;;;;5014220;28;20175;-86
2023/03/21 05:43:46;;;;;;;21.03;12.43;;;7.90;99.90;;;;;;4997061;28;20187;-85
2023/03/21 05:46:12;;;;;;;20.73;12.97;;;7.80;99.90;;;;;;4996506;28;20182;-86
2023/03/21 05:48:38;;;;;;;22.27;12.37;;;7.90;99.90;;;;;;5014088;28;20178;-86
2023/03/21 05:51:04;;;;;;;19.80;12.70;;;7.80;99.90;;;;;;5006162;28;20194;-87
2023/03/21 05:53:30;;;;;;;25.50;12.30;;;7.90;99.90;;;;;;5015429;28;20178;-86
2023/03/21 05:55:56;;;;;;;22.07;12.70;;;7.90;99.90;;;;;;5011960;28;20198;-86
2023/03/21 05:58:22;;;;;;;28.80;12.63;;;7.90;99.90;;;;;;5013668;28;20222;-86
2023/03/21 06:00:47;;;;;;;18.87;13.17;;;7.80;99.90;;;;;;5013239;28;20201;-86
2023/03/21 06:03:14;;;;;;;24.40;13.17;;;7.90;99.90;;;;;;4995134;28;20229;-87
2023/03/21 06:05:39;;;;;;;18.40;11.97;;;7.90;99.90;;;;;;4995603;28;20240;-87
2023/03/21 06:08:05;;;;;;;19.97;12.03;;;7.80;99.90;;;;;;5013587;28;20171;-87
2023/03/21 06:10:31;;;;;;;20.87;12.67;;;7.90;99.90;;;;;;5021514;28;20186;-86
2023/03/21 06:12:57;;;;;;;24.20;13.33;;;7.90;99.90;;;;;;5014522;28;20179;-86
2023/03/21 06:15:23;;;;;;;24.07;13.10;;;7.90;99.90;;;;;;5031517;28;20620;-85
2023/03/21 06:17:48;;;;;;;24.27;13.30;;;7.90;99.90;;;;;;5034263;28;20274;-87
2023/03/21 06:20:15;;;;;;;24.30;13.37;;;7.90;99.90;;;;;;5009258;28;20318;-86
2023/03/21 06:22:43;;;;;;;26.73;13.33;;;8.00;99.90;;;;;;4997201;28;20192;-86
2023/03/21 06:25:10;;;;;;;21.70;11.67;;;7.90;99.90;;;;;;4996009;28;20522;-87
2023/03/21 06:27:36;;;;;;;23.03;12.67;;;8.00;99.90;;;;;;4995282;28;20667;-86
2023/03/21 06:30:03;;;;;;;24.63;12.17;;;8.00;99.90;;;;;;4995462;28;20242;-86
2023/03/21 06:32:29;;;;;;;17.93;12.43;;;8.00;99.90;;;;;;4979075;28;20192;-86
2023/03/21 06:34:55;;;;;;;17.00;10.90;;;8.00;99.90;;;;;;4987983;28;20194;-86
2023/03/21 06:37:20;;;;;;;19.47;11.47;;;8.00;99.90;;;;;;4996782;28;20204;-87
2023/03/21 06:39:46;;;;;;;20.30;11.17;;;8.10;99.90;;;;;;4995833;28;20176;-86
2023/03/21 06:42:13;;;;;;;21.20;11.53;;;8.10;99.90;;;;;;4997541;28;20231;-86
2023/03/21 06:44:39;;;;;;;21.13;10.77;;;8.20;99.90;;;;;;4996875;28;20183;-86
2023/03/21 06:47:04;;;;;;;22.97;12.00;;;8.20;99.90;;;;;;4996229;28;20176;-86
2023/03/21 06:49:30;;;;;;;20.63;11.43;;;8.20;99.90;;;;;;4994408;28;20210;-85
2023/03/21 06:51:56;;;;;;;19.77;10.67;;;8.30;99.90;;;;;;4986039;28;20215;-86
2023/03/21 06:54:22;;;;;;;19.30;11.17;;;8.30;99.90;;;;;;4991739;28;20212;-86
2023/03/21 06:56:48;;;;;;;18.20;10.90;;;8.30;99.90;;;;;;4995154;28;20184;-88
2023/03/21 06:59:14;;;;;;;18.67;10.50;;;8.30;99.90;;;;;;4994448;28;20223;-86
2023/03/21 07:01:41;;;;;;;16.90;10.43;;;8.40;99.90;;;;;;4995281;28;20611;-87
2023/03/21 07:04:08;;;;;;;19.33;11.00;;;8.40;99.90;;;;;;5003432;28;20183;-86
2023/03/21 07:06:33;;;;;;;18.40;10.83;;;8.40;99.90;;;;;;4994144;28;20239;-87
2023/03/21 07:09:01;;;;;;;22.67;10.77;;;8.40;99.90;;;;;;4993695;28;20611;-87
2023/03/21 07:11:26;;;;;;;16.50;11.20;;;8.40;99.90;;;;;;4992344;28;20176;-86
2023/03/21 07:13:52;;;;;;;19.70;11.00;;;8.40;99.90;;;;;;4976241;28;20247;-87
2023/03/21 07:16:20;;;;;;;15.87;10.87;;;8.40;99.90;;;;;;4988938;28;20219;-87
2023/03/21 07:18:46;;;;;;;23.40;11.90;;;8.40;99.90;;;;;;4996082;28;20222;-87
2023/03/21 07:21:12;;;;;;;20.70;11.30;;;8.40;99.90;;;;;;5022647;28;20293;-86
2023/03/21 07:23:37;;;;;;;17.23;10.27;;;8.50;99.90;;;;;;5017470;28;20190;-87
2023/03/21 07:26:04;;;;;;;16.73;10.90;;;8.40;99.90;;;;;;5033806;28;20179;-86
2023/03/21 07:28:32;;;;;;;21.27;11.27;;;8.40;99.90;;;;;;5016832;28;20193;-87
2023/03/21 07:31:03;;;;;;;20.67;10.60;;;8.50;99.90;;;;;;5035271;28;20205;-87
2023/03/21 07:33:30;;;;;;;17.50;10.43;;;8.50;99.90;;;;;;5018026;28;20183;-85
2023/03/21 07:35:57;;;;;;;18.43;11.33;;;8.50;99.90;;;;;;5033992;28;20274;-84
2023/03/21 07:38:23;;;;;;;17.70;11.40;;;8.60;99.90;;;;;;5014539;28;20214;-84
2023/03/21 07:40:49;;;;;;;24.77;11.60;;;8.60;99.90;;;;;;5033342;28;20257;-86
2023/03/21 07:43:20;;;;;;;21.87;11.23;;;8.70;99.90;;;;;;5017512;28;20344;-86
2023/03/21 07:45:47;;;;;;;22.10;11.23;;;8.70;99.90;;;;;;5016524;28;20182;-86
2023/03/21 07:48:16;;;;;;;18.43;11.70;;;8.80;99.90;;;;;;5016503;28;20200;-86
2023/03/21 07:50:46;;;;;;;20.80;11.40;;;8.80;99.90;;;;;;5016034;28;20191;-87
2023/03/21 07:53:13;;;;;;;17.42;10.20;;;8.90;99.90;;;;;;5033013;28;20174;-86
2023/03/21 07:55:39;;;;;;;17.10;10.57;;;9.00;99.90;;;;;;5033820;28;20179;-86
2023/03/21 07:58:08;;;;;;;16.55;10.32;;;9.00;99.90;;;;;;5035185;28;20538;-86
2023/03/21 08:00:34;;;;;;;16.57;10.80;;;9.10;99.90;;;;;;5016629;28;20187;-85
2023/03/21 08:03:00;;;;;;;16.43;10.63;;;9.10;99.90;;;;;;5033739;28;20181;-87
2023/03/21 08:05:29;;;;;;;19.42;10.82;;;9.10;99.90;;;;;;5018370;28;20783;-87
2023/03/21 08:07:56;;;;;;;16.57;10.50;;;9.20;99.90;;;;;;5018026;28;20174;-87
2023/03/21 08:10:22;;;;;;;20.98;10.88;;;9.20;99.90;;;;;;5035501;28;20178;-87
2023/03/21 08:12:48;;;;;;;20.45;9.98;;;9.20;99.90;;;;;;5017090;28;20171;-86
2023/03/21 08:15:14;;;;;;;18.38;10.45;;;9.20;99.90;;;;;;5012061;28;20614;-86
2023/03/21 08:17:44;;;;;;;18.60;10.53;;;9.30;99.90;;;;;;5013258;28;20533;-88
2023/03/21 08:20:17;;;;;;;17.58;9.77;;;9.30;99.90;;;;;;5033942;28;20300;-87
2023/03/21 08:22:43;;;;;;;20.15;10.95;;;9.30;99.90;;;;;;5035205;28;20617;-85
2023/03/21 08:25:14;;;;;;;15.47;9.10;;;9.40;99.90;;;;;;5016441;28;20214;-86
2023/03/21 08:27:42;;;;;;;19.20;11.15;;;9.40;99.90;;;;;;5018014;28;20665;-87
2023/03/21 08:30:11;;;;;;;17.58;9.77;;;9.40;99.90;;;;;;5017495;28;20197;-84
2023/03/21 08:32:37;;;;;;;20.25;9.25;;;9.40;99.90;;;;;;5016071;28;20190;-84
2023/03/21 08:35:08;;;;;;;21.02;9.52;;;9.40;99.90;;;;;;5017099;28;20641;-86
2023/03/21 08:37:37;;;;;;;17.10;9.33;;;9.30;99.90;;;;;;5016204;28;20202;-87
2023/03/21 08:40:12;;;;;;;23.25;9.85;;;9.40;99.90;;;;;;5033496;28;20191;-87
2023/03/21 08:42:39;;;;;;;14.17;9.03;;;9.40;99.90;;;;;;5017360;28;20264;-86
2023/03/21 08:45:06;;;;;;;20.90;9.47;;;9.40;99.90;;;;;;5035049;28;20179;-88
2023/03/21 08:47:32;;;;;;;19.73;8.65;;;9.40;99.90;;;;;;5034395;28;20190;-86
2023/03/21 08:49:58;;;;;;;18.63;9.83;;;9.50;99.90;;;;;;5034853;28;20229;-86
2023/03/21 08:52:25;;;;;;;17.47;9.60;;;9.60;99.90;;;;;;5017440;28;20182;-86
2023/03/21 08:54:52;;;;;;;15.85;9.48;;;9.60;99.90;;;;;;5017471;28;20190;-86
2023/03/21 08:57:18;;;;;;;16.77;9.65;;;9.60;99.90;;;;;;5033889;28;20209;-87
2023/03/21 08:59:44;;;;;;;15.98;9.50;;;9.70;99.90;;;;;;5035119;28;20629;-86
2023/03/21 09:02:15;;;;;;;16.73;8.98;;;9.80;99.90;;;;;;5016845;28;20185;-86
2023/03/21 09:04:42;;;;;;;15.50;9.63;;;9.90;99.90;;;;;;5034949;28;20159;-87
2023/03/21 09:07:10;;;;;;;19.27;9.32;;;9.90;99.90;;;;;;5034933;28;20173;-92
2023/03/21 09:09:36;;;;;;;14.17;9.13;;;10.00;99.90;;;;;;5034820;28;20159;-90
2023/03/21 09:12:03;;;;;;;18.43;9.50;;;10.00;99.90;;;;;;5017556;28;20186;-93
2023/03/21 09:14:28;;;;;;;20.65;9.55;;;10.00;99.90;;;;;;5015179;28;20182;-87
2023/03/21 09:16:54;;;;;;;20.85;9.68;;;10.00;99.90;;;;;;5011248;28;20245;-86
2023/03/21 09:19:21;;;;;;;23.63;10.40;;;10.00;99.90;;;;;;4997245;28;20195;-90
2023/03/21 09:21:47;;;;;;;16.93;9.97;;;10.00;99.90;;;;;;5030625;28;20237;-88
2023/03/21 09:24:14;;;;;;;17.88;10.02;;;10.00;99.90;;;;;;5017686;28;20186;-86
2023/03/21 09:26:42;;;;;;;15.98;9.02;;;10.00;99.90;;;;;;5033840;28;20182;-86
2023/03/21 09:29:08;;;;;;;20.85;9.57;;;10.00;99.90;;;;;;5034839;28;20214;-87
2023/03/21 09:31:34;;;;;;;15.65;8.52;;;10.00;99.90;;;;;;5034880;28;20202;-86
2023/03/21 09:34:00;;;;;;;21.85;9.18;;;10.00;99.90;;;;;;5035365;28;20183;-91
2023/03/21 09:36:26;;;;;;;19.30;8.77;;;10.10;99.90;;;;;;5035638;28;20216;-91
2023/03/21 09:38:53;;;;;;;16.52;8.50;;;10.10;99.90;;;;;;5017198;28;20214;-90
2023/03/21 09:41:47;;;;;;;17.55;8.70;;;10.10;99.90;;;;;;5034674;28;20185;-88
2023/03/21 09:44:26;;;;;;;19.27;8.68;;;10.20;99.90;;;;;;5016781;28;20527;-91
2023/03/21 09:47:20;;;;;;;19.55;9.35;;;10.30;99.90;;;;;;5016571;28;20199;-89
2023/03/21 09:49:56;;;;;;;15.90;8.77;;;10.30;99.90;;;;;;5009585;28;20183;-88
2023/03/21 09:52:29;;;;;;;16.80;9.10;;;10.40;99.90;;;;;;5000524;28;20192;-91
2023/03/21 09:54:55;;;;;;;18.23;8.90;;;10.40;99.90;;;;;;5014309;28;20225;-88
2023/03/21 09:57:42;;;;;;;20.27;9.50;;;10.40;99.90;;;;;;5003190;28;20207;-92
2023/03/21 10:00:19;;;;;;;15.32;8.48;;;10.50;99.90;;;;;;5017662;28;20229;-94
2023/03/21 10:02:52;;;;;;;14.90;8.80;;;10.50;99.90;;;;;;5030637;28;20186;-88
2023/03/21 10:05:31;;;;;;;19.73;8.73;;;10.50;99.90;;;;;;5027603;28;20175;-88
2023/03/21 10:08:21;;;;;;;16.55;9.10;;;10.60;99.90;;;;;;5016291;28;20174;-88
2023/03/21 10:10:54;;;;;;;18.77;9.55;;;10.60;99.90;;;;;;5032863;28;20201;-94
2023/03/21 10:13:36;;;;;;;16.60;9.57;;;10.80;99.90;;;;;;5014449;28;20201;-88
2023/03/21 10:16:15;;;;;;;15.15;8.50;;;10.90;99.90;;;;;;5034291;28;20556;-92
2023/03/21 10:18:43;;;;;;;31.98;10.05;;;10.90;99.90;;;;;;5016736;28;20210;-93
2023/03/21 10:21:21;;;;;;;18.25;9.00;;;10.80;99.90;;;;;;5016887;28;20597;-88
2023/03/21 10:23:50;;;;;;;14.00;8.70;;;10.70;99.90;;;;;;5016630;28;20171;-88
2023/03/21 10:26:20;;;;;;;15.65;8.50;;;10.70;99.90;;;;;;5006285;28;20186;-88
2023/03/21 10:28:47;;;;;;;16.92;8.32;;;10.70;99.90;;;;;;5009082;28;20179;-89
2023/03/21 10:31:24;;;;;;;15.05;7.95;;;10.70;99.90;;;;;;5032875;28;20229;-95
2023/03/21 10:33:52;;;;;;;16.70;8.98;;;10.80;99.90;;;;;;5034103;28;20201;-93
2023/03/21 10:36:30;;;;;;;19.55;9.02;;;10.90;99.90;;;;;;5017433;28;20210;-92
2023/03/21 10:39:01;;;;;;;16.08;9.13;;;10.80;99.90;;;;;;5018058;28;20230;-94
2023/03/21 10:41:27;;;;;;;16.52;8.15;;;10.80;99.90;;;;;;5033085;28;20209;-91
2023/03/21 10:44:13;;;;;;;18.33;8.23;;;10.80;99.90;;;;;;5000213;28;20187;-90
2023/03/21 10:46:53;;;;;;;15.30;8.00;;;11.00;99.90;;;;;;5010997;28;20609;-88
2023/03/21 10:49:22;;;;;;;17.23;7.90;;;11.10;99.90;;;;;;5031572;28;20187;-87
2023/03/21 10:51:54;;;;;;;16.95;8.00;;;11.20;99.90;;;;;;5033632;28;20816;-93
2023/03/21 10:54:25;;;;;;;17.40;8.18;;;11.10;99.90;;;;;;5011144;28;20630;-89
2023/03/21 10:57:11;;;;;;;18.58;8.32;;;11.00;99.90;;;;;;5008863;28;20252;-89
2023/03/21 10:59:56;;;;;;;19.65;8.50;;;11.00;99.90;;;;;;5015464;28;20218;-93
2023/03/21 11:02:33;;;;;;;20.00;8.07;;;10.90;99.90;;;;;;5025006;28;20214;-86
2023/03/21 11:05:06;;;;;;;20.58;8.23;;;11.00;99.90;;;;;;5035567;28;20648;-88
2023/03/21 11:07:34;;;;;;;18.05;8.32;;;11.00;99.90;;;;;;5036745;28;20289;-87
2023/03/21 11:10:10;;;;;;;16.63;8.52;;;11.00;99.90;;;;;;5005059;28;20174;-89
2023/03/21 11:12:45;;;;;;;17.40;7.53;;;11.00;99.90;;;;;;5020542;28;20622;-89
2023/03/21 11:15:29;;;;;;;18.38;8.25;;;11.00;99.90;;;;;;5013084;28;20188;-87
2023/03/21 11:18:00;;;;;;;20.45;8.18;;;11.10;99.90;;;;;;5013983;28;20324;-87
2023/03/21 11:20:30;;;;;;;17.73;8.73;;;11.10;99.90;;;;;;5018373;28;20218;-88
2023/03/21 11:22:55;;;;;;;18.77;8.32;;;11.10;99.90;;;;;;5019033;28;20217;-88
2023/03/21 11:25:30;;;;;;;16.88;8.05;;;11.20;99.90;;;;;;5035978;28;20182;-85
2023/03/21 11:27:57;;;;;;;16.80;8.50;;;11.20;99.90;;;;;;5012490;28;20188;-87
2023/03/21 11:30:27;;;;;;;15.02;8.70;;;11.40;99.90;;;;;;5018436;28;20187;-85
2023/03/21 11:33:00;;;;;;;19.15;8.77;;;11.60;99.90;;;;;;5017762;28;20178;-86
2023/03/21 11:35:37;;;;;;;21.08;8.27;;;11.90;99.90;;;;;;5005649;28;20634;-85
2023/03/21 11:38:05;;;;;;;16.52;7.80;;;12.00;99.90;;;;;;4998565;28;20284;-87
2023/03/21 11:40:35;;;;;;;14.48;7.15;;;12.00;99.90;;;;;;4998691;28;20556;-85
2023/03/21 11:43:22;;;;;;;15.35;8.20;;;11.90;99.90;;;;;;5015846;28;20179;-84
2023/03/21 11:46:08;;;;;;;16.27;7.55;;;11.90;99.90;;;;;;5020238;28;20265;-85
2023/03/21 11:48:43;;;;;;;17.80;7.65;;;12.00;99.90;;;;;;5034128;28;20256;-84
2023/03/21 11:51:24;;;;;;;14.32;7.25;;;11.90;99.90;;;;;;5017301;28;20193;-85
2023/03/21 11:54:15;;;;;;;12.32;7.50;;;11.90;99.90;;;;;;5035904;28;20163;-82
2023/03/21 11:56:53;;;;;;;14.43;7.38;;;11.80;99.90;;;;;;5017195;28;20190;-83
2023/03/21 11:59:40;;;;;;;18.58;7.93;;;11.70;99.90;;;;;;5016933;28;20209;-84
2023/03/21 12:02:54;;;;;;;16.75;7.35;;;11.70;99.90;;;;;;5035014;28;20180;-84
2023/03/21 12:05:33;;;;;;;16.80;8.60;;;11.60;99.90;;;;;;5000757;28;20252;-86
2023/03/21 12:08:11;;;;;;;16.65;7.90;;;11.70;99.90;;;;;;5002947;28;20178;-85
2023/03/21 12:10:55;;;;;;;16.83;8.00;;;11.70;99.90;;;;;;5016464;28;20373;-85
2023/03/21 12:13:36;;;;;;;16.55;7.78;;;11.70;99.90;;;;;;5016503;28;20232;-84
2023/03/21 12:16:05;;;;;;;12.38;7.13;;;11.70;99.90;;;;;;5035481;28;20163;-86
2023/03/21 12:18:56;;;;;;;13.55;6.97;;;11.70;99.90;;;;;;5017387;28;20214;-85
2023/03/21 12:21:38;;;;;;;12.73;6.40;;;11.90;99.90;;;;;;4998599;28;20219;-85
2023/03/21 12:24:17;;;;;;;12.60;6.75;;;11.90;99.90;;;;;;4993039;28;20180;-86
2023/03/21 12:27:11;;;;;;;11.85;5.90;;;12.00;99.90;;;;;;4993235;28;20326;-86
2023/03/21 12:29:55;;;;;;;11.00;6.45;;;12.10;99.90;;;;;;4993854;28;20229;-85
2023/03/21 12:32:30;;;;;;;18.08;8.20;;;12.20;99.90;;;;;;4994997;28;20696;-85
2023/03/21 12:35:13;;;;;;;14.18;6.78;;;12.20;99.90;;;;;;4993781;28;20274;-83
2023/03/21 12:38:08;;;;;;;15.10;7.03;;;12.20;99.90;;;;;;4993328;28;20665;-85
2023/03/21 12:41:13;;;;;;;11.38;6.50;;;12.30;99.90;;;;;;4993494;28;20183;-86
2023/03/21 12:43:51;;;;;;;16.02;7.82;;;12.40;99.90;;;;;;4998964;28;20180;-88
2023/03/21 12:46:17;;;;;;;15.40;7.45;;;12.30;99.90;;;;;;4993140;28;20187;-88
2023/03/21 12:48:47;;;;;;;17.25;7.65;;;12.30;99.90;;;;;;4992666;28;20187;-85
2023/03/21 12:51:18;;;;;;;22.02;8.52;;;12.20;99.90;;;;;;4994141;28;20190;-82
2023/03/21 12:54:25;;;;;;;18.88;8.23;;;12.20;99.90;;;;;;4993796;28;20623;-85
2023/03/21 12:56:50;;;;;;;13.48;7.82;;;12.20;99.90;;;;;;4954532;28;20255;-87
2023/03/21 12:59:34;;;;;;;19.00;8.15;;;12.10;99.90;;;;;;4982212;28;20216;-86